Time;durP1;ratioP1;P1;durP2;ratioP2;P2;SDS_P1;SDS_P2;PMS_P1;PMS_P2;Temp;Humidity;BMP_temperature;BMP_pressure;BME280_temperature;BME280_humidity;BME280_pressure;Samples;Min_cycle;Max_cycle;Signal;HPM_P1;HPM_P2
2023/10/01 00:00:46;;;;;;;7.82;6.00;;;22.40;99.90;;;;;;6229691;28;94236;-71
2023/10/01 00:03:49;;;;;;;7.55;6.03;;;22.40;99.90;;;;;;6230974;28;94413;-71
2023/10/01 00:06:52;;;;;;;6.95;6.15;;;22.40;99.90;;;;;;6231108;28;93428;-71
2023/10/01 00:09:54;;;;;;;7.93;6.10;;;22.40;99.90;;;;;;6229528;28;94371;-71
2023/10/01 00:12:58;;;;;;;7.13;5.70;;;22.40;99.90;;;;;;6225123;28;94148;-71
2023/10/01 00:16:00;;;;;;;6.50;5.30;;;22.40;99.90;;;;;;6224366;28;95595;-70
2023/10/01 00:19:04;;;;;;;6.57;5.20;;;22.40;99.90;;;;;;6227229;28;94383;-71
2023/10/01 00:22:06;;;;;;;6.43;5.35;;;22.40;99.90;;;;;;6230934;28;94029;-71
2023/10/01 00:25:08;;;;;;;7.50;5.97;;;22.40;99.90;;;;;;6229818;28;92990;-71
2023/10/01 00:28:10;;;;;;;7.90;6.43;;;22.40;99.90;;;;;;6228986;28;94030;-71
2023/10/01 00:31:13;;;;;;;7.07;5.80;;;22.40;99.90;;;;;;6225836;28;92954;-70
2023/10/01 00:34:17;;;;;;;6.85;5.55;;;22.40;99.90;;;;;;6229642;28;94254;-71
2023/10/01 00:37:18;;;;;;;7.65;6.03;;;22.40;99.90;;;;;;6226671;28;93448;-71
2023/10/01 00:40:20;;;;;;;6.50;5.22;;;22.40;99.90;;;;;;6222691;28;94090;-70
2023/10/01 00:43:26;;;;;;;7.45;6.00;;;22.40;99.90;;;;;;6223160;28;94134;-71
2023/10/01 00:46:28;;;;;;;7.00;5.30;;;22.40;99.90;;;;;;6221915;28;95086;-71
2023/10/01 00:49:33;;;;;;;7.47;6.20;;;22.40;99.90;;;;;;6224317;28;94262;-71
2023/10/01 00:52:37;;;;;;;6.93;5.82;;;22.40;99.90;;;;;;6223743;28;94138;-71
2023/10/01 00:55:39;;;;;;;8.07;6.32;;;22.30;99.90;;;;;;6220914;28;94269;-71
2023/10/01 00:58:41;;;;;;;6.53;5.55;;;22.40;99.90;;;;;;6226869;28;94121;-71
2023/10/01 01:01:44;;;;;;;6.85;6.00;;;22.40;99.90;;;;;;6229730;28;94495;-71
2023/10/01 01:05:05;;;;;;;6.88;5.82;;;22.30;99.90;;;;;;6229099;28;93979;-71
2023/10/01 01:08:09;;;;;;;6.65;5.30;;;22.40;99.90;;;;;;6229685;28;93401;-71
2023/10/01 01:11:12;;;;;;;7.38;5.90;;;22.40;99.90;;;;;;6225052;28;94930;-71
2023/10/01 01:14:18;;;;;;;7.13;5.65;;;22.40;99.90;;;;;;6227099;28;94133;-71
2023/10/01 01:17:21;;;;;;;6.53;5.45;;;22.40;99.90;;;;;;6225947;28;95053;-71
2023/10/01 01:20:30;;;;;;;7.22;5.38;;;22.40;99.90;;;;;;6219847;28;94101;-71
2023/10/01 01:23:34;;;;;;;6.30;5.38;;;22.40;99.90;;;;;;6216412;28;94275;-71
2023/10/01 01:26:37;;;;;;;6.85;5.50;;;22.40;99.90;;;;;;6216682;28;93980;-71
2023/10/01 01:29:44;;;;;;;6.15;5.47;;;22.40;99.90;;;;;;6221126;28;94365;-71
2023/10/01 01:32:53;;;;;;;6.60;5.47;;;22.40;99.90;;;;;;6224009;28;94209;-71
2023/10/01 01:35:55;;;;;;;7.05;6.10;;;22.40;99.90;;;;;;6228548;28;95435;-72
2023/10/01 01:39:13;;;;;;;8.60;6.35;;;22.30;99.90;;;;;;6229591;28;93371;-71
2023/10/01 01:42:17;;;;;;;9.52;6.78;;;22.40;99.90;;;;;;6226880;28;94086;-71
2023/10/01 01:45:25;;;;;;;8.10;6.43;;;22.40;99.90;;;;;;6226445;28;94216;-71
2023/10/01 01:48:30;;;;;;;6.82;6.10;;;22.40;99.90;;;;;;6217419;28;94897;-71
2023/10/01 01:51:33;;;;;;;7.68;6.43;;;22.30;99.90;;;;;;6227755;28;94418;-72
2023/10/01 01:54:39;;;;;;;10.20;6.72;;;22.40;99.90;;;;;;6225100;28;94498;-71
2023/10/01 01:57:41;;;;;;;6.72;5.93;;;22.40;99.90;;;;;;6224495;28;94358;-72
2023/10/01 02:01:01;;;;;;;8.05;6.45;;;22.40;99.90;;;;;;6221625;28;94068;-71
2023/10/01 02:04:04;;;;;;;6.70;5.53;;;22.30;99.90;;;;;;6227983;28;94111;-71
2023/10/01 02:07:06;;;;;;;7.70;6.07;;;22.40;99.90;;;;;;6224616;28;94114;-72
2023/10/01 02:10:11;;;;;;;6.95;5.57;;;22.30;99.90;;;;;;6227955;28;94199;-72
2023/10/01 02:13:16;;;;;;;7.40;5.93;;;22.40;99.90;;;;;;6217542;28;94454;-72
2023/10/01 02:16:34;;;;;;;7.72;6.07;;;22.30;99.90;;;;;;6225858;28;94138;-71
2023/10/01 02:19:36;;;;;;;6.75;6.05;;;22.30;99.90;;;;;;6223641;28;95129;-71
2023/10/01 02:22:40;;;;;;;7.05;6.22;;;22.30;99.90;;;;;;6214054;28;94278;-72
2023/10/01 02:25:46;;;;;;;6.97;5.72;;;22.30;99.90;;;;;;6227828;28;93986;-71
2023/10/01 02:28:47;;;;;;;7.30;6.13;;;22.30;99.90;;;;;;6227649;28;94150;-72
2023/10/01 02:31:55;;;;;;;10.38;7.30;;;22.30;99.90;;;;;;6224813;28;94097;-71
2023/10/01 02:34:58;;;;;;;7.57;6.78;;;22.30;99.90;;;;;;6217046;28;94040;-72
2023/10/01 02:38:00;;;;;;;7.57;6.80;;;22.30;99.90;;;;;;6216520;28;94117;-71
2023/10/01 02:41:08;;;;;;;8.25;7.13;;;22.40;99.90;;;;;;6226981;28;93742;-72
2023/10/01 02:44:11;;;;;;;7.97;6.75;;;22.30;99.90;;;;;;6227501;28;94247;-70
2023/10/01 02:47:16;;;;;;;7.63;6.70;;;22.30;99.90;;;;;;6223767;28;94125;-71
2023/10/01 02:50:21;;;;;;;8.38;6.80;;;22.30;99.90;;;;;;6225096;28;95088;-72
2023/10/01 02:53:23;;;;;;;8.00;6.60;;;22.30;99.90;;;;;;6227331;28;93737;-72
2023/10/01 02:56:26;;;;;;;7.90;6.38;;;22.30;99.90;;;;;;6227613;28;94140;-72
2023/10/01 02:59:29;;;;;;;7.78;6.95;;;22.30;99.90;;;;;;6219293;28;94177;-72
2023/10/01 03:02:32;;;;;;;8.55;6.60;;;22.30;99.90;;;;;;6226676;28;94046;-72
2023/10/01 03:05:36;;;;;;;7.10;6.20;;;22.30;99.90;;;;;;6227407;28;93040;-72
2023/10/01 03:09:00;;;;;;;6.50;5.80;;;22.40;99.90;;;;;;6225216;28;93893;-72
2023/10/01 03:15:27;;;;;;;7.50;6.70;;;22.30;99.90;;;;;;6222175;28;92238;-72
2023/10/01 03:18:34;;;;;;;7.72;6.72;;;22.30;99.90;;;;;;6224342;28;96001;-71
2023/10/01 03:24:58;;;;;;;7.00;6.30;;;22.30;99.90;;;;;;6225731;28;92810;-71
2023/10/01 03:28:07;;;;;;;8.13;7.10;;;22.30;99.90;;;;;;6225035;28;94055;-71
2023/10/01 03:31:09;;;;;;;7.90;7.10;;;22.30;99.90;;;;;;6218109;28;94500;-71
2023/10/01 03:34:28;;;;;;;8.27;7.10;;;22.30;99.90;;;;;;6221281;28;94324;-71
2023/10/01 03:37:37;;;;;;;7.70;6.90;;;22.30;99.90;;;;;;6225074;28;94072;-71
2023/10/01 03:40:58;;;;;;;7.50;6.70;;;22.30;99.90;;;;;;6225421;28;94253;-71
2023/10/01 03:44:08;;;;;;;7.45;6.60;;;22.30;99.90;;;;;;6225207;28;93419;-71
2023/10/01 03:47:09;;;;;;;7.78;6.53;;;22.30;99.90;;;;;;6216220;28;94075;-70
2023/10/01 03:50:15;;;;;;;8.20;6.72;;;22.30;99.90;;;;;;6224624;28;92981;-71
2023/10/01 03:53:18;;;;;;;7.68;6.45;;;22.30;99.90;;;;;;6225764;28;95064;-71
2023/10/01 03:56:20;;;;;;;6.90;6.13;;;22.30;99.90;;;;;;6224530;28;94369;-71
2023/10/01 03:59:24;;;;;;;8.55;6.68;;;22.30;99.90;;;;;;6225118;28;94216;-71
2023/10/01 04:02:28;;;;;;;7.38;6.53;;;22.30;99.90;;;;;;6224712;28;94151;-70
2023/10/01 04:05:33;;;;;;;6.97;6.20;;;22.30;99.90;;;;;;6209842;28;94159;-71
2023/10/01 04:08:44;;;;;;;7.50;6.70;;;22.30;99.90;;;;;;6223679;28;94142;-71
2023/10/01 04:11:51;;;;;;;7.97;6.70;;;22.30;99.90;;;;;;6224220;28;94107;-71
2023/10/01 04:15:01;;;;;;;7.57;6.78;;;22.30;99.90;;;;;;6225300;28;93311;-70
2023/10/01 04:18:19;;;;;;;7.05;6.35;;;22.30;99.90;;;;;;6213526;28;94207;-71
2023/10/01 04:21:26;;;;;;;7.28;6.35;;;22.30;99.90;;;;;;6219853;28;94017;-71
2023/10/01 04:24:27;;;;;;;7.63;6.82;;;22.20;99.90;;;;;;6221797;28;95043;-71
2023/10/01 04:27:30;;;;;;;8.23;7.03;;;22.30;99.90;;;;;;6226553;28;93355;-71
2023/10/01 04:30:34;;;;;;;7.60;6.80;;;22.30;99.90;;;;;;6230917;28;94124;-71
2023/10/01 04:33:36;;;;;;;6.97;6.28;;;22.30;99.90;;;;;;6216714;28;94222;-71
2023/10/01 04:36:39;;;;;;;8.65;6.93;;;22.30;99.90;;;;;;6230905;28;94111;-71
2023/10/01 04:39:41;;;;;;;8.18;6.72;;;22.30;99.90;;;;;;6229475;28;94112;-71
2023/10/01 04:42:43;;;;;;;6.70;6.00;;;22.30;99.90;;;;;;6218183;28;94112;-71
2023/10/01 04:45:46;;;;;;;7.75;6.28;;;22.30;99.90;;;;;;6230369;28;93693;-71
2023/10/01 04:48:50;;;;;;;8.43;6.53;;;22.20;99.90;;;;;;6222461;28;94170;-71
2023/10/01 04:51:53;;;;;;;8.85;6.82;;;22.30;99.90;;;;;;6230054;28;92941;-71
2023/10/01 04:54:55;;;;;;;8.05;6.65;;;22.20;99.90;;;;;;6229010;28;95127;-71
2023/10/01 04:57:58;;;;;;;7.38;6.57;;;22.20;99.90;;;;;;6221937;28;94352;-71
2023/10/01 05:01:01;;;;;;;6.85;6.10;;;22.20;99.90;;;;;;6218893;28;94082;-71
2023/10/01 05:04:04;;;;;;;6.55;5.90;;;22.30;99.90;;;;;;6228866;28;94024;-71
2023/10/01 05:07:10;;;;;;;6.93;6.22;;;22.20;99.90;;;;;;6217575;28;94045;-71
2023/10/01 05:10:13;;;;;;;7.20;6.40;;;22.20;99.90;;;;;;6226656;28;94041;-71
2023/10/01 05:13:15;;;;;;;7.45;6.63;;;22.30;99.90;;;;;;6224146;28;94037;-71
2023/10/01 05:16:26;;;;;;;10.05;7.22;;;22.30;99.90;;;;;;6228202;28;93406;-71
2023/10/01 05:19:29;;;;;;;7.53;6.43;;;22.20;99.90;;;;;;6229192;28;94258;-71
2023/10/01 05:22:46;;;;;;;7.35;6.45;;;22.30;99.90;;;;;;6226888;28;94081;-71
2023/10/01 05:25:49;;;;;;;7.20;6.38;;;22.20;99.90;;;;;;6228039;28;95596;-71
2023/10/01 05:28:54;;;;;;;7.30;6.30;;;22.20;99.90;;;;;;6229471;28;92900;-71
2023/10/01 05:31:59;;;;;;;6.55;5.65;;;22.20;99.90;;;;;;6227878;28;94225;-71
2023/10/01 05:35:14;;;;;;;8.27;6.38;;;22.20;99.90;;;;;;6228908;28;94425;-71
2023/10/01 05:38:16;;;;;;;7.80;6.00;;;22.20;99.90;;;;;;6229449;28;94303;-71
2023/10/01 05:41:29;;;;;;;8.20;6.38;;;22.20;99.90;;;;;;6227462;28;94029;-71
2023/10/01 05:44:34;;;;;;;8.43;6.50;;;22.20;99.90;;;;;;6227081;28;94201;-71
2023/10/01 05:47:49;;;;;;;6.22;5.63;;;22.20;99.90;;;;;;6222714;28;93391;-71
2023/10/01 05:50:52;;;;;;;6.97;6.28;;;22.20;99.90;;;;;;6228534;28;94148;-71
2023/10/01 05:53:53;;;;;;;7.80;6.55;;;22.30;99.90;;;;;;6228562;28;94122;-71
2023/10/01 05:56:55;;;;;;;7.07;5.95;;;22.30;99.90;;;;;;6228165;28;95059;-71
2023/10/01 05:59:57;;;;;;;7.93;6.22;;;22.30;99.90;;;;;;6226291;28;94102;-70
2023/10/01 06:03:01;;;;;;;9.77;6.80;;;22.30;99.90;;;;;;6226406;28;94188;-71
2023/10/01 06:06:08;;;;;;;8.90;7.03;;;22.30;99.90;;;;;;6225763;28;94038;-69
2023/10/01 06:09:14;;;;;;;8.10;6.40;;;22.30;99.90;;;;;;6215743;28;94169;-71
2023/10/01 06:12:17;;;;;;;113.85;71.28;;;22.30;99.90;;;;;;6227576;28;94254;-73
2023/10/01 06:15:20;;;;;;;33.97;28.38;;;22.30;99.90;;;;;;6223464;28;93670;-72
2023/10/01 06:18:24;;;;;;;24.45;19.00;;;22.40;99.90;;;;;;6223345;28;93415;-71
2023/10/01 06:21:28;;;;;;;20.98;17.05;;;22.40;99.90;;;;;;6220547;28;94113;-71
2023/10/01 06:24:30;;;;;;;20.58;15.70;;;22.50;99.90;;;;;;6225807;28;94109;-71
2023/10/01 06:27:32;;;;;;;17.40;13.98;;;22.50;99.90;;;;;;6225923;28;94955;-72
2023/10/01 06:30:35;;;;;;;16.58;13.13;;;22.60;99.90;;;;;;6226892;28;93982;-72
2023/10/01 06:33:39;;;;;;;15.70;13.27;;;22.60;99.90;;;;;;6226800;28;93765;-72
2023/10/01 06:36:42;;;;;;;15.32;12.32;;;22.60;99.90;;;;;;6226411;28;94288;-72
2023/10/01 06:39:46;;;;;;;15.02;12.10;;;22.60;99.90;;;;;;6225437;28;94149;-72
2023/10/01 06:42:48;;;;;;;13.40;11.00;;;22.60;99.90;;;;;;6225879;28;94285;-72
2023/10/01 06:45:50;;;;;;;13.68;11.25;;;22.60;99.90;;;;;;6214701;28;94173;-73
2023/10/01 06:48:55;;;;;;;13.05;10.80;;;22.50;99.90;;;;;;6227402;28;93316;-73
2023/10/01 06:51:56;;;;;;;13.80;10.93;;;22.50;99.90;;;;;;6217226;28;94653;-73
2023/10/01 06:55:01;;;;;;;13.52;10.70;;;22.60;99.90;;;;;;6218384;28;94709;-73
2023/10/01 06:58:06;;;;;;;13.73;10.32;;;22.50;99.90;;;;;;6207570;28;95157;-72
2023/10/01 07:01:33;;;;;;;11.70;9.68;;;22.50;99.90;;;;;;6228108;28;94094;-72
2023/10/01 07:04:32;;;;;;;12.93;9.80;;;22.50;99.90;;;;;;6216775;28;94248;-72
2023/10/01 07:07:36;;;;;;;12.25;9.93;;;22.50;99.90;;;;;;6218627;28;93160;-73
2023/10/01 07:10:39;;;;;;;14.55;9.73;;;22.50;99.90;;;;;;6215612;28;94422;-72
2023/10/01 07:13:42;;;;;;;16.48;9.88;;;22.50;99.90;;;;;;6218558;28;94038;-72
2023/10/01 07:16:44;;;;;;;14.70;10.20;;;22.50;99.90;;;;;;6220879;28;94314;-72
2023/10/01 07:19:59;;;;;;;11.57;9.25;;;22.50;99.90;;;;;;6216072;28;93378;-73
2023/10/01 07:23:01;;;;;;;11.50;9.73;;;22.60;99.90;;;;;;6224136;28;94187;-74
2023/10/01 07:26:03;;;;;;;11.13;9.13;;;22.50;99.90;;;;;;6226760;28;94110;-74
2023/10/01 07:29:05;;;;;;;11.13;9.20;;;22.50;99.90;;;;;;6220421;28;95052;-73
2023/10/01 07:32:11;;;;;;;11.27;9.40;;;22.50;99.90;;;;;;6222184;28;94149;-73
2023/10/01 07:35:20;;;;;;;10.55;8.65;;;22.50;99.90;;;;;;6210901;28;94016;-73
2023/10/01 07:38:22;;;;;;;10.98;8.88;;;22.50;99.90;;;;;;6224257;28;94755;-73
2023/10/01 07:41:27;;;;;;;12.48;8.90;;;22.50;99.90;;;;;;6220957;28;94159;-73
2023/10/01 07:44:29;;;;;;;11.98;9.30;;;22.50;99.90;;;;;;6224668;28;94048;-73
2023/10/01 07:47:32;;;;;;;9.90;8.43;;;22.50;99.90;;;;;;6220151;28;94324;-73
2023/10/01 07:50:41;;;;;;;9.07;8.05;;;22.50;99.90;;;;;;6226987;28;93346;-73
2023/10/01 07:53:44;;;;;;;10.07;8.65;;;22.40;99.90;;;;;;6226547;28;94080;-73
2023/10/01 07:56:49;;;;;;;12.15;8.45;;;22.50;99.90;;;;;;6226465;28;94038;-73
2023/10/01 07:59:53;;;;;;;13.18;8.88;;;22.50;99.90;;;;;;6226504;28;94996;-72
2023/10/01 08:06:16;;;;;;;10.40;8.82;;;22.50;99.90;;;;;;6222659;28;93877;-73
2023/10/01 08:09:18;;;;;;;10.80;8.85;;;22.50;99.90;;;;;;6229851;28;94017;-73
2023/10/01 08:12:28;;;;;;;9.38;8.30;;;22.50;99.90;;;;;;6231045;28;94042;-73
2023/10/01 08:15:31;;;;;;;10.65;8.60;;;22.50;99.90;;;;;;6229050;28;94081;-73
2023/10/01 08:18:39;;;;;;;11.05;8.32;;;22.50;99.90;;;;;;6229826;28;94565;-73
2023/10/01 08:21:48;;;;;;;10.27;8.48;;;22.50;99.90;;;;;;6226759;28;93594;-74
2023/10/01 08:24:51;;;;;;;9.90;8.27;;;22.50;99.90;;;;;;6230207;28;95644;-72
2023/10/01 08:31:43;;;;;;;10.10;8.32;;;22.50;99.90;;;;;;6228423;28;94844;-72
2023/10/01 08:35:02;;;;;;;9.32;8.00;;;22.50;99.90;;;;;;6218935;28;92755;-73
2023/10/01 08:38:15;;;;;;;11.38;8.48;;;22.50;99.90;;;;;;6230529;28;94130;-72
2023/10/01 08:41:32;;;;;;;10.75;8.23;;;22.50;99.90;;;;;;6221621;28;94179;-73
2023/10/01 08:44:44;;;;;;;9.40;7.95;;;22.50;99.90;;;;;;6225413;28;95256;-72
2023/10/01 08:47:47;;;;;;;8.93;7.63;;;22.50;99.90;;;;;;6228909;28;94069;-72
2023/10/01 08:50:51;;;;;;;9.60;8.00;;;22.50;99.90;;;;;;6230169;28;94109;-73
2023/10/01 08:53:56;;;;;;;10.55;8.20;;;22.50;99.90;;;;;;6229537;28;93239;-73
2023/10/01 08:56:59;;;;;;;9.27;7.65;;;22.60;99.90;;;;;;6229745;28;95696;-73
2023/10/01 09:00:01;;;;;;;9.75;8.05;;;22.50;99.90;;;;;;6229421;28;94069;-72
2023/10/01 09:03:10;;;;;;;11.25;8.45;;;22.50;99.90;;;;;;6228246;28;95279;-73
2023/10/01 09:06:24;;;;;;;8.52;7.50;;;22.50;99.90;;;;;;6218975;28;94075;-73
2023/10/01 09:09:36;;;;;;;9.85;7.75;;;22.50;99.90;;;;;;6221645;28;94093;-74
2023/10/01 09:12:46;;;;;;;9.18;7.55;;;22.50;99.90;;;;;;6230380;28;94037;-72
2023/10/01 09:15:53;;;;;;;10.00;7.85;;;22.50;99.90;;;;;;6219865;28;94067;-72
2023/10/01 09:19:04;;;;;;;10.77;7.75;;;22.50;99.90;;;;;;6212797;28;94206;-73
2023/10/01 09:22:15;;;;;;;10.65;7.93;;;22.50;99.90;;;;;;6229282;28;94132;-74
2023/10/01 09:25:20;;;;;;;10.32;7.80;;;22.50;99.90;;;;;;6229383;28;93717;-73
2023/10/01 09:28:37;;;;;;;9.45;7.63;;;22.50;99.90;;;;;;6229329;28;93936;-73
2023/10/01 09:31:52;;;;;;;9.45;7.72;;;22.50;99.90;;;;;;6229108;28;94369;-72
2023/10/01 09:34:58;;;;;;;11.25;7.90;;;22.50;99.90;;;;;;6228239;28;94999;-73
2023/10/01 09:38:10;;;;;;;8.40;7.15;;;22.50;99.90;;;;;;6228696;28;93455;-73
2023/10/01 09:41:19;;;;;;;8.27;7.10;;;22.60;99.90;;;;;;6203990;28;94664;-73
2023/10/01 09:44:22;;;;;;;9.88;7.30;;;22.50;99.90;;;;;;6229601;28;94580;-73
2023/10/01 09:47:25;;;;;;;8.98;7.80;;;22.60;99.90;;;;;;6211817;28;94303;-73
2023/10/01 09:50:28;;;;;;;8.98;7.53;;;22.60;99.90;;;;;;6208283;28;94668;-73
2023/10/01 09:53:43;;;;;;;10.90;8.13;;;22.60;99.90;;;;;;6226897;28;94306;-74
2023/10/01 09:56:47;;;;;;;10.43;7.72;;;22.60;99.90;;;;;;6219382;28;93686;-73
2023/10/01 09:59:50;;;;;;;9.45;7.05;;;22.50;99.90;;;;;;6215510;28;94086;-72
2023/10/01 10:02:53;;;;;;;9.15;7.35;;;22.50;99.90;;;;;;6228817;28;94043;-73
2023/10/01 10:05:55;;;;;;;10.18;7.93;;;22.60;99.90;;;;;;6217156;28;95311;-72
2023/10/01 10:09:04;;;;;;;9.23;7.82;;;22.60;99.90;;;;;;6230336;28;94014;-73
2023/10/01 10:12:07;;;;;;;9.55;7.60;;;22.50;99.90;;;;;;6222344;28;94048;-73
2023/10/01 10:15:16;;;;;;;8.93;7.22;;;22.60;99.90;;;;;;6205206;28;94486;-73
2023/10/01 10:18:23;;;;;;;8.27;6.82;;;22.60;99.90;;;;;;6218046;28;93172;-73
2023/10/01 10:21:36;;;;;;;8.20;7.13;;;22.60;99.90;;;;;;6224834;28;94016;-73
2023/10/01 10:24:46;;;;;;;9.10;7.00;;;22.60;99.90;;;;;;6227923;28;92143;-73
2023/10/01 10:27:50;;;;;;;7.88;6.57;;;22.60;99.90;;;;;;6228151;28;94942;-73
2023/10/01 10:31:29;;;;;;;9.25;7.45;;;22.60;99.90;;;;;;6227640;28;94033;-72
2023/10/01 10:34:36;;;;;;;8.25;7.40;;;22.60;99.90;;;;;;6227917;28;94009;-73
2023/10/01 10:37:47;;;;;;;7.18;6.22;;;22.60;99.90;;;;;;6227470;28;94044;-73
2023/10/01 10:41:07;;;;;;;7.93;7.00;;;22.60;99.90;;;;;;6228366;28;94064;-73
2023/10/01 10:44:10;;;;;;;7.57;6.78;;;22.60;99.90;;;;;;6227868;28;93033;-73
2023/10/01 10:47:11;;;;;;;7.43;6.63;;;22.60;99.90;;;;;;6220101;28;94156;-73
2023/10/01 10:50:15;;;;;;;9.40;7.05;;;22.60;99.90;;;;;;6227820;28;94556;-73
2023/10/01 10:53:20;;;;;;;8.07;6.80;;;22.60;99.90;;;;;;6227818;28;94678;-73
2023/10/01 10:56:35;;;;;;;7.88;6.75;;;22.60;99.90;;;;;;6228557;28;94044;-73
2023/10/01 10:59:39;;;;;;;7.50;6.65;;;22.60;99.90;;;;;;6224858;28;93448;-73
2023/10/01 11:02:43;;;;;;;7.45;6.68;;;22.60;99.90;;;;;;6215596;28;94070;-73
2023/10/01 11:05:51;;;;;;;7.70;6.60;;;22.60;99.90;;;;;;6219298;28;94022;-73
2023/10/01 11:08:54;;;;;;;8.10;6.57;;;22.60;99.90;;;;;;6217848;28;95136;-73
2023/10/01 11:12:07;;;;;;;7.13;6.43;;;22.60;99.90;;;;;;6220646;28;92470;-73
2023/10/01 11:15:24;;;;;;;7.32;6.07;;;22.60;99.90;;;;;;6226592;28;94668;-73
2023/10/01 11:18:26;;;;;;;8.07;6.63;;;22.60;99.90;;;;;;6226561;28;94145;-73
2023/10/01 11:21:31;;;;;;;8.23;6.53;;;22.60;99.90;;;;;;6226230;28;94430;-74
2023/10/01 11:24:34;;;;;;;6.97;6.18;;;22.60;99.90;;;;;;6226100;28;93045;-73
2023/10/01 11:27:44;;;;;;;7.13;6.28;;;22.60;99.90;;;;;;6227052;28;93025;-74
2023/10/01 11:30:48;;;;;;;6.57;5.88;;;22.60;99.90;;;;;;6227393;28;93395;-72
2023/10/01 11:33:59;;;;;;;7.38;6.32;;;22.60;99.90;;;;;;6224836;28;94054;-73
2023/10/01 11:37:11;;;;;;;7.15;6.30;;;22.70;99.90;;;;;;6227418;28;94047;-73
2023/10/01 11:40:14;;;;;;;7.40;6.20;;;22.60;99.90;;;;;;6234119;28;95197;-73
2023/10/01 11:43:23;;;;;;;7.78;6.10;;;22.60;99.90;;;;;;6233910;28;93076;-73
2023/10/01 11:46:29;;;;;;;6.93;6.20;;;22.60;99.90;;;;;;6233456;28;94578;-73
2023/10/01 11:49:34;;;;;;;6.20;5.60;;;22.60;99.90;;;;;;6232405;28;94088;-73
2023/10/01 11:52:36;;;;;;;7.05;6.25;;;22.60;99.90;;;;;;6234291;28;94282;-73
2023/10/01 11:55:39;;;;;;;7.22;6.28;;;22.60;99.90;;;;;;6234699;28;94086;-73
2023/10/01 11:58:41;;;;;;;7.47;6.43;;;22.60;99.90;;;;;;6234247;28;94128;-73
2023/10/01 12:01:50;;;;;;;7.63;6.15;;;22.60;99.90;;;;;;6235161;28;93139;-72
2023/10/01 12:04:57;;;;;;;8.20;6.43;;;22.60;99.90;;;;;;6231553;28;94310;-73
2023/10/01 12:07:59;;;;;;;7.63;6.00;;;22.60;99.90;;;;;;6226567;28;94050;-73
2023/10/01 12:11:26;;;;;;;7.65;6.43;;;22.60;99.90;;;;;;6234011;28;95036;-73
2023/10/01 12:14:25;;;;;;;7.38;6.25;;;22.60;99.90;;;;;;6223696;28;93840;-73
2023/10/01 12:17:29;;;;;;;7.85;6.22;;;22.60;99.90;;;;;;6231472;28;94130;-73
2023/10/01 12:20:32;;;;;;;7.40;6.00;;;22.60;99.90;;;;;;6234952;28;92998;-73
2023/10/01 12:23:34;;;;;;;9.40;6.32;;;22.60;99.90;;;;;;6226422;28;94092;-73
2023/10/01 12:26:38;;;;;;;7.13;6.18;;;22.70;99.90;;;;;;6234498;28;95943;-73
2023/10/01 12:29:48;;;;;;;7.40;6.38;;;22.70;99.90;;;;;;6235340;28;94115;-73
2023/10/01 12:32:52;;;;;;;7.10;5.95;;;22.70;99.90;;;;;;6235145;28;92392;-73
2023/10/01 12:35:54;;;;;;;7.55;6.03;;;22.70;99.90;;;;;;6233922;28;94308;-72
2023/10/01 12:39:16;;;;;;;7.53;6.35;;;22.70;99.90;;;;;;6234347;28;94064;-72
2023/10/01 12:42:24;;;;;;;7.53;6.00;;;22.70;99.90;;;;;;6233611;28;95874;-73
2023/10/01 12:45:27;;;;;;;7.88;6.13;;;22.70;99.90;;;;;;6234513;28;94099;-73
2023/10/01 12:48:29;;;;;;;8.10;6.35;;;22.70;99.90;;;;;;6227799;28;94298;-73
2023/10/01 12:51:37;;;;;;;8.32;6.45;;;22.70;99.90;;;;;;6231312;28;94242;-72
2023/10/01 12:54:39;;;;;;;8.02;6.45;;;22.70;99.90;;;;;;6229051;28;94119;-73
2023/10/01 12:57:42;;;;;;;8.70;6.88;;;22.70;99.90;;;;;;6230168;28;94489;-72
2023/10/01 13:00:44;;;;;;;8.10;6.28;;;22.70;99.90;;;;;;6231081;28;94060;-72
2023/10/01 13:03:49;;;;;;;7.43;6.43;;;22.70;99.90;;;;;;6230918;28;93402;-73
2023/10/01 13:06:52;;;;;;;8.88;6.60;;;22.70;99.90;;;;;;6218601;28;94310;-72
2023/10/01 13:09:53;;;;;;;8.18;6.28;;;22.70;99.90;;;;;;6227029;28;94620;-73
2023/10/01 13:12:56;;;;;;;8.00;6.28;;;22.70;99.90;;;;;;6218509;28;94115;-72
2023/10/01 13:15:59;;;;;;;7.18;6.13;;;22.70;99.90;;;;;;6229763;28;94138;-72
2023/10/01 13:19:02;;;;;;;7.80;6.10;;;22.70;99.90;;;;;;6210968;28;94018;-72
2023/10/01 13:22:05;;;;;;;10.18;7.05;;;22.70;99.90;;;;;;6224429;28;94031;-72
2023/10/01 13:25:07;;;;;;;6.88;6.00;;;22.70;99.90;;;;;;6229918;28;93994;-72
2023/10/01 13:28:16;;;;;;;7.97;6.28;;;22.70;99.90;;;;;;6229184;28;94087;-73
2023/10/01 13:34:54;;;;;;;7.72;6.35;;;22.70;99.90;;;;;;6212850;28;93398;-73
2023/10/01 13:38:15;;;;;;;8.20;6.40;;;22.70;99.90;;;;;;6217600;28;92793;-73
2023/10/01 14:11:26;;;;;;;8.65;6.60;;;22.70;99.90;;;;;;6223557;28;92273;-73
2023/10/01 14:14:33;;;;;;;8.10;6.35;;;22.70;99.90;;;;;;6228650;28;93163;-73
2023/10/01 14:17:35;;;;;;;8.32;6.65;;;22.70;99.90;;;;;;6223690;28;95060;-74
2023/10/01 14:20:46;;;;;;;8.55;6.60;;;22.70;99.90;;;;;;6225711;28;94334;-74
2023/10/01 14:23:50;;;;;;;9.75;6.60;;;22.70;99.90;;;;;;6221962;28;94730;-73
2023/10/01 14:26:55;;;;;;;9.13;6.65;;;22.70;99.90;;;;;;6227810;28;94360;-74
2023/10/01 14:30:24;;;;;;;8.18;6.53;;;22.80;99.90;;;;;;6229725;28;93704;-73
2023/10/01 14:33:27;;;;;;;9.70;6.82;;;22.70;99.90;;;;;;6205144;28;93460;-73
2023/10/01 14:36:30;;;;;;;8.95;6.78;;;22.70;99.90;;;;;;6217772;28;94073;-73
2023/10/01 14:39:33;;;;;;;8.55;6.40;;;22.70;99.90;;;;;;6229930;28;93456;-73
2023/10/01 14:42:36;;;;;;;7.43;6.05;;;22.70;99.90;;;;;;6216272;28;94038;-73
2023/10/01 14:45:44;;;;;;;8.55;6.10;;;22.70;99.90;;;;;;6225486;28;93322;-74
2023/10/01 14:48:46;;;;;;;8.50;6.07;;;22.70;99.90;;;;;;6219818;28;94837;-74
2023/10/01 14:51:53;;;;;;;9.80;6.80;;;22.70;99.90;;;;;;6227858;28;94444;-73
2023/10/01 14:55:02;;;;;;;9.13;6.60;;;22.70;99.90;;;;;;6227944;28;92241;-74
2023/10/01 14:58:12;;;;;;;7.47;5.75;;;22.70;99.90;;;;;;6228061;28;93007;-73
2023/10/01 15:01:15;;;;;;;8.63;6.10;;;22.80;99.90;;;;;;6228856;28;93132;-73
2023/10/01 15:04:20;;;;;;;8.55;6.15;;;22.80;99.90;;;;;;6215524;28;93028;-73
2023/10/01 15:07:23;;;;;;;8.00;5.88;;;22.70;99.90;;;;;;6204260;28;94030;-74
2023/10/01 15:10:26;;;;;;;7.72;5.97;;;22.70;99.90;;;;;;6227032;28;93325;-75
2023/10/01 15:13:37;;;;;;;8.93;6.25;;;22.70;99.90;;;;;;6224752;28;93995;-74
2023/10/01 15:16:39;;;;;;;10.45;6.93;;;22.80;99.90;;;;;;6225719;28;94078;-73
2023/10/01 15:19:50;;;;;;;8.93;6.38;;;22.80;99.90;;;;;;6226144;28;95035;-74
2023/10/01 15:22:51;;;;;;;10.48;6.38;;;22.80;99.90;;;;;;6219228;28;94237;-75
2023/10/01 15:25:56;;;;;;;11.00;6.78;;;22.70;99.90;;;;;;6219885;28;94093;-74
2023/10/01 15:29:00;;;;;;;10.27;6.43;;;22.80;99.90;;;;;;6227018;28;94144;-74
2023/10/01 15:32:14;;;;;;;9.77;6.25;;;22.80;99.90;;;;;;6223888;28;94195;-74
2023/10/01 15:35:22;;;;;;;11.40;6.45;;;22.80;99.90;;;;;;6222038;28;94168;-73
2023/10/01 15:38:33;;;;;;;9.73;6.72;;;22.80;99.90;;;;;;6222484;28;94071;-74
2023/10/01 15:41:41;;;;;;;9.35;6.80;;;22.80;99.90;;;;;;6227994;28;93289;-71
2023/10/01 15:44:45;;;;;;;10.63;7.30;;;22.80;99.90;;;;;;6220780;28;94055;-74
2023/10/01 15:47:47;;;;;;;12.18;8.15;;;22.80;99.90;;;;;;6225521;28;93975;-73
2023/10/01 15:50:52;;;;;;;10.35;7.47;;;22.90;99.90;;;;;;6223299;28;95502;-73
2023/10/01 15:53:55;;;;;;;10.70;7.40;;;23.20;99.90;;;;;;6222212;28;94009;-73
2023/10/01 15:56:58;;;;;;;12.43;7.25;;;23.60;99.90;;;;;;6226053;28;94385;-73
2023/10/01 16:00:00;;;;;;;12.90;7.13;;;23.90;99.90;;;;;;6215602;28;94081;-73
2023/10/01 16:03:10;;;;;;;10.75;7.63;;;24.00;99.90;;;;;;6224192;28;93964;-73
2023/10/01 16:06:12;;;;;;;10.70;6.95;;;24.00;99.90;;;;;;6226284;28;94093;-73
2023/10/01 16:09:14;;;;;;;11.82;7.70;;;24.00;99.90;;;;;;6216138;28;94081;-74
2023/10/01 16:12:17;;;;;;;14.50;7.45;;;23.90;99.90;;;;;;6227128;28;93397;-74
2023/10/01 16:15:21;;;;;;;12.73;7.50;;;23.90;99.90;;;;;;6221570;28;94124;-73
2023/10/01 16:18:24;;;;;;;16.45;8.70;;;23.90;99.90;;;;;;6224637;28;94183;-75
2023/10/01 16:21:26;;;;;;;19.83;9.07;;;23.90;99.90;;;;;;6224148;28;95011;-75
2023/10/01 16:24:28;;;;;;;25.52;10.15;;;23.80;99.90;;;;;;6227147;28;94638;-74
2023/10/01 16:27:33;;;;;;;24.48;10.40;;;23.80;99.90;;;;;;6227654;28;93966;-75
2023/10/01 16:30:35;;;;;;;25.17;10.32;;;23.80;99.90;;;;;;6228694;28;94410;-74
2023/10/01 16:33:41;;;;;;;35.13;11.60;;;23.80;99.90;;;;;;6227520;28;94173;-75
2023/10/01 16:36:43;;;;;;;33.15;11.82;;;23.80;99.90;;;;;;6211511;28;94699;-74
2023/10/01 16:39:45;;;;;;;32.70;12.18;;;23.70;99.90;;;;;;6219846;28;94127;-74
2023/10/01 16:42:51;;;;;;;32.42;11.93;;;23.70;99.90;;;;;;6231144;28;93276;-75
2023/10/01 16:45:53;;;;;;;33.15;11.98;;;23.70;99.90;;;;;;6222184;28;94292;-75
2023/10/01 16:48:58;;;;;;;31.88;12.00;;;23.70;99.90;;;;;;6223364;28;94146;-75